Time;durP1;ratioP1;P1;durP2;ratioP2;P2;SDS_P1;SDS_P2;PMS_P1;PMS_P2;Temp;Humidity;BMP_temperature;BMP_pressure;BME280_temperature;BME280_humidity;BME280_pressure;Samples;Min_cycle;Max_cycle;Signal;HPM_P1;HPM_P2
2022/11/14 00:01:20;;;;;;;6.05;3.00;;;;;;;;;;5051318;28;20136;-53
2022/11/14 00:03:49;;;;;;;8.15;3.45;;;;;;;;;;5043552;28;20049;-53
2022/11/14 00:06:17;;;;;;;9.18;4.55;;;;;;;;;;5034979;28;20069;-51
2022/11/14 00:08:43;;;;;;;7.55;3.17;;;;;;;;;;5036707;28;20081;-51
2022/11/14 00:11:09;;;;;;;9.38;3.38;;;;;;;;;;5035889;28;20410;-52
2022/11/14 00:13:36;;;;;;;5.57;3.25;;;;;;;;;;5034423;28;20089;-52
2022/11/14 00:16:04;;;;;;;6.47;3.42;;;;;;;;;;5034852;28;20132;-50
2022/11/14 00:18:30;;;;;;;8.98;2.88;;;;;;;;;;5034337;28;20136;-50
2022/11/14 00:20:56;;;;;;;5.68;3.15;;;;;;;;;;5046573;28;20361;-51
2022/11/14 00:23:24;;;;;;;6.93;3.45;;;;;;;;;;5042433;28;20132;-51
2022/11/14 00:25:50;;;;;;;6.97;3.97;;;;;;;;;;5051851;28;20545;-50
2022/11/14 00:28:17;;;;;;;8.40;4.00;;;;;;;;;;5034986;28;20136;-53
2022/11/14 00:30:46;;;;;;;7.63;3.75;;;;;;;;;;5034554;28;20092;-52
2022/11/14 00:33:12;;;;;;;6.57;3.75;;;;;;;;;;5042140;28;20125;-49
2022/11/14 00:35:39;;;;;;;7.10;3.45;;;;;;;;;;5047375;28;20639;-49
2022/11/14 00:38:05;;;;;;;8.70;3.20;;;;;;;;;;5039275;28;20132;-49
2022/11/14 00:40:33;;;;;;;9.40;4.28;;;;;;;;;;5049904;28;20128;-49
2022/11/14 00:42:59;;;;;;;7.28;3.60;;;;;;;;;;5034376;28;20132;-49
2022/11/14 00:45:25;;;;;;;7.03;3.42;;;;;;;;;;5034034;28;20140;-49
2022/11/14 00:47:54;;;;;;;6.57;3.13;;;;;;;;;;5034665;28;20081;-49
2022/11/14 00:50:21;;;;;;;7.95;3.80;;;;;;;;;;5047529;28;20137;-49
2022/11/14 00:52:47;;;;;;;10.63;4.10;;;;;;;;;;5037261;28;20041;-49
2022/11/14 00:55:14;;;;;;;7.40;3.67;;;;;;;;;;5037480;28;20096;-49
2022/11/14 00:57:42;;;;;;;7.07;4.25;;;;;;;;;;5040663;28;20050;-51
2022/11/14 01:00:09;;;;;;;6.93;3.90;;;;;;;;;;5040668;28;20085;-49
2022/11/14 01:02:36;;;;;;;6.57;3.47;;;;;;;;;;5038430;28;20486;-50
2022/11/14 01:05:02;;;;;;;8.40;3.65;;;;;;;;;;5034384;28;20060;-49
2022/11/14 01:07:29;;;;;;;8.75;3.67;;;;;;;;;;5035266;28;20137;-48
2022/11/14 01:09:55;;;;;;;7.10;3.50;;;;;;;;;;5034003;28;20049;-52
2022/11/14 01:12:22;;;;;;;6.28;3.20;;;;;;;;;;5035826;28;20059;-50
2022/11/14 01:14:49;;;;;;;6.22;3.65;;;;;;;;;;5048993;28;20051;-50
2022/11/14 01:17:16;;;;;;;7.03;3.42;;;;;;;;;;5050882;28;20458;-49
2022/11/14 01:19:42;;;;;;;8.15;3.03;;;;;;;;;;5045851;28;20056;-52
2022/11/14 01:22:08;;;;;;;6.97;3.42;;;;;;;;;;5042520;28;20658;-48
2022/11/14 01:24:35;;;;;;;6.35;2.97;;;;;;;;;;5047220;28;20059;-48
2022/11/14 01:27:01;;;;;;;6.55;2.83;;;;;;;;;;5047064;28;20136;-49
2022/11/14 01:29:28;;;;;;;7.28;2.75;;;;;;;;;;5048173;28;20144;-51
2022/11/14 01:31:56;;;;;;;5.63;2.78;;;;;;;;;;5047901;28;20418;-49
2022/11/14 01:34:22;;;;;;;7.53;3.40;;;;;;;;;;5041092;28;20088;-49
2022/11/14 01:36:48;;;;;;;5.57;2.80;;;;;;;;;;5051712;28;20041;-49
2022/11/14 01:39:15;;;;;;;4.97;2.83;;;;;;;;;;5038376;28;20132;-49
2022/11/14 01:41:41;;;;;;;6.45;2.75;;;;;;;;;;5048313;28;20124;-52
2022/11/14 01:44:12;;;;;;;5.30;2.42;;;;;;;;;;5043790;28;20132;-50
2022/11/14 01:46:39;;;;;;;5.32;2.63;;;;;;;;;;5047917;28;20076;-48
2022/11/14 01:49:12;;;;;;;7.65;3.13;;;;;;;;;;5051107;28;20156;-49
2022/11/14 01:51:41;;;;;;;4.35;2.25;;;;;;;;;;5042457;28;20132;-50
2022/11/14 01:54:09;;;;;;;6.03;2.90;;;;;;;;;;5046984;28;20149;-48
2022/11/14 01:56:37;;;;;;;7.57;2.92;;;;;;;;;;5045297;28;20136;-49
2022/11/14 01:59:06;;;;;;;6.50;2.85;;;;;;;;;;5040906;28;20541;-49
2022/11/14 02:01:34;;;;;;;6.00;2.50;;;;;;;;;;5051542;28;20444;-49
2022/11/14 02:04:01;;;;;;;3.58;1.95;;;;;;;;;;5040068;28;20136;-50
2022/11/14 02:06:30;;;;;;;4.20;2.28;;;;;;;;;;5039099;28;20784;-49
2022/11/14 02:08:58;;;;;;;4.28;2.38;;;;;;;;;;5052126;28;20135;-48
2022/11/14 02:11:25;;;;;;;4.80;2.67;;;;;;;;;;5046177;28;20152;-49
2022/11/14 02:13:51;;;;;;;6.75;2.67;;;;;;;;;;5044434;28;20132;-49
2022/11/14 02:16:18;;;;;;;5.00;2.60;;;;;;;;;;5038030;28;20141;-49
2022/11/14 02:18:44;;;;;;;4.28;2.35;;;;;;;;;;5032163;28;20132;-49
2022/11/14 02:21:12;;;;;;;5.38;2.60;;;;;;;;;;5040715;28;20530;-48
2022/11/14 02:23:38;;;;;;;6.78;3.22;;;;;;;;;;5048909;28;20243;-50
2022/11/14 02:26:05;;;;;;;7.15;2.47;;;;;;;;;;5050248;28;20545;-49
2022/11/14 02:28:31;;;;;;;6.18;2.45;;;;;;;;;;5044622;28;20128;-50
2022/11/14 02:30:57;;;;;;;7.40;2.63;;;;;;;;;;5032276;28;20141;-49
2022/11/14 02:33:24;;;;;;;4.07;2.38;;;;;;;;;;5031955;28;20054;-51
2022/11/14 02:35:50;;;;;;;4.63;1.90;;;;;;;;;;5047265;28;20159;-49
2022/11/14 02:38:18;;;;;;;5.15;2.42;;;;;;;;;;5040436;28;20133;-49
2022/11/14 02:40:44;;;;;;;4.13;2.08;;;;;;;;;;5032550;28;20140;-49
2022/11/14 02:43:11;;;;;;;6.68;2.97;;;;;;;;;;5042941;28;20151;-52
2022/11/14 02:45:37;;;;;;;5.30;2.38;;;;;;;;;;5045738;28;20080;-48
2022/11/14 02:48:04;;;;;;;5.88;2.92;;;;;;;;;;5050434;28;20048;-49
2022/11/14 02:50:30;;;;;;;6.10;2.67;;;;;;;;;;5041734;28;20680;-50
2022/11/14 02:52:57;;;;;;;6.88;2.40;;;;;;;;;;5048915;28;20045;-48
2022/11/14 02:55:27;;;;;;;5.95;2.88;;;;;;;;;;5051019;28;20127;-49
2022/11/14 02:57:53;;;;;;;8.82;3.50;;;;;;;;;;5032758;28;20041;-49
2022/11/14 03:00:19;;;;;;;6.20;2.90;;;;;;;;;;5047252;28;20063;-48
2022/11/14 03:02:46;;;;;;;5.38;2.83;;;;;;;;;;5052001;28;20518;-49
2022/11/14 03:05:12;;;;;;;6.65;2.90;;;;;;;;;;5049502;28;20131;-51
2022/11/14 03:07:39;;;;;;;5.18;2.50;;;;;;;;;;5032528;28;20149;-49
2022/11/14 03:10:05;;;;;;;4.63;2.45;;;;;;;;;;5032038;28;20663;-50
2022/11/14 03:12:33;;;;;;;5.35;2.38;;;;;;;;;;5041303;28;20118;-52
2022/11/14 03:15:00;;;;;;;5.25;2.40;;;;;;;;;;5038361;28;20049;-50
2022/11/14 03:17:26;;;;;;;5.70;3.00;;;;;;;;;;5051638;28;20144;-49
2022/11/14 03:19:52;;;;;;;7.35;2.92;;;;;;;;;;5038041;28;20589;-50
2022/11/14 03:22:19;;;;;;;8.90;3.58;;;;;;;;;;5047696;28;20168;-49
2022/11/14 03:24:45;;;;;;;7.25;3.22;;;;;;;;;;5036114;28;20133;-49
2022/11/14 03:27:11;;;;;;;6.03;2.85;;;;;;;;;;5043527;28;20541;-52
2022/11/14 03:29:39;;;;;;;7.18;3.25;;;;;;;;;;5036184;28;20038;-52
2022/11/14 03:32:06;;;;;;;6.35;2.80;;;;;;;;;;5041144;28;20124;-51
2022/11/14 03:34:32;;;;;;;7.65;3.35;;;;;;;;;;5045314;28;20136;-50
2022/11/14 03:36:59;;;;;;;6.47;2.95;;;;;;;;;;5045770;28;20600;-50
2022/11/14 03:39:25;;;;;;;7.93;3.05;;;;;;;;;;5033487;28;20065;-48
2022/11/14 03:41:52;;;;;;;6.03;3.50;;;;;;;;;;5041818;28;20132;-51
2022/11/14 03:44:18;;;;;;;7.15;3.80;;;;;;;;;;5049656;28;20246;-51
2022/11/14 03:46:46;;;;;;;6.80;3.03;;;;;;;;;;5041990;28;20132;-50
2022/11/14 03:49:12;;;;;;;8.65;3.30;;;;;;;;;;5050600;28;20615;-52
2022/11/14 03:51:38;;;;;;;6.70;3.38;;;;;;;;;;5045646;28;20132;-49
2022/11/14 03:54:05;;;;;;;8.50;3.42;;;;;;;;;;5048790;28;20529;-49
2022/11/14 03:56:31;;;;;;;7.43;3.30;;;;;;;;;;5044675;28;20050;-49
2022/11/14 03:58:58;;;;;;;11.23;3.80;;;;;;;;;;5034936;28;20534;-50
2022/11/14 04:01:24;;;;;;;7.75;4.03;;;;;;;;;;5035525;28;20137;-48
2022/11/14 04:03:52;;;;;;;7.82;3.70;;;;;;;;;;5042972;28;20179;-52
2022/11/14 04:06:18;;;;;;;7.50;3.58;;;;;;;;;;5043624;28;20179;-49
2022/11/14 04:08:45;;;;;;;7.22;3.70;;;;;;;;;;5035639;28;20124;-52
2022/11/14 04:11:11;;;;;;;8.63;4.07;;;;;;;;;;5034965;28;20057;-49
2022/11/14 04:13:38;;;;;;;8.40;4.55;;;;;;;;;;5053070;28;20053;-49
2022/11/14 04:16:05;;;;;;;9.70;5.10;;;;;;;;;;5042596;28;20456;-48
2022/11/14 04:18:31;;;;;;;8.82;3.88;;;;;;;;;;5043838;28;20748;-50
2022/11/14 04:20:59;;;;;;;9.15;4.13;;;;;;;;;;5049497;28;20053;-51
2022/11/14 04:23:25;;;;;;;9.80;4.32;;;;;;;;;;5050629;28;20729;-49
2022/11/14 04:25:52;;;;;;;9.23;4.05;;;;;;;;;;5034753;28;20156;-50
2022/11/14 04:28:19;;;;;;;8.05;4.03;;;;;;;;;;5035017;28;20056;-49
2022/11/14 04:30:45;;;;;;;10.77;4.40;;;;;;;;;;5045855;28;20060;-49
2022/11/14 04:33:12;;;;;;;8.68;4.05;;;;;;;;;;5049086;28;20713;-49
2022/11/14 04:35:38;;;;;;;10.13;4.45;;;;;;;;;;5034766;28;20696;-49
2022/11/14 04:38:06;;;;;;;7.85;4.22;;;;;;;;;;5043768;28;20084;-49
2022/11/14 04:40:32;;;;;;;8.65;4.55;;;;;;;;;;5045990;28;20136;-49
2022/11/14 04:42:59;;;;;;;9.13;4.20;;;;;;;;;;5048405;28;20057;-49
2022/11/14 04:45:25;;;;;;;9.60;4.20;;;;;;;;;;5034468;28;20520;-49
2022/11/14 04:47:51;;;;;;;9.50;4.55;;;;;;;;;;5045375;28;20153;-50
2022/11/14 04:50:18;;;;;;;9.40;4.70;;;;;;;;;;5053900;28;20144;-49
2022/11/14 04:52:44;;;;;;;9.07;5.10;;;;;;;;;;5047905;28;20655;-51
2022/11/14 04:55:12;;;;;;;11.60;5.60;;;;;;;;;;5046742;28;20135;-50
2022/11/14 04:57:39;;;;;;;8.68;4.20;;;;;;;;;;5040379;28;20132;-49
2022/11/14 05:00:06;;;;;;;10.02;4.60;;;;;;;;;;5052680;28;20148;-48
2022/11/14 05:02:33;;;;;;;9.43;5.30;;;;;;;;;;5037887;28;20500;-51
2022/11/14 05:04:59;;;;;;;9.55;4.82;;;;;;;;;;5034005;28;20052;-49
2022/11/14 05:07:25;;;;;;;10.98;5.28;;;;;;;;;;5033882;28;20538;-49
2022/11/14 05:09:52;;;;;;;12.60;5.00;;;;;;;;;;5047117;28;20056;-49
2022/11/14 05:12:19;;;;;;;10.82;5.55;;;;;;;;;;5033984;28;20053;-49
2022/11/14 05:14:46;;;;;;;11.52;6.03;;;;;;;;;;5034062;28;20061;-49
2022/11/14 05:17:12;;;;;;;11.38;5.45;;;;;;;;;;5037469;28;20164;-50
2022/11/14 05:19:38;;;;;;;13.35;5.82;;;;;;;;;;5047434;28;20041;-49
2022/11/14 05:22:05;;;;;;;11.02;5.78;;;;;;;;;;5048511;28;20075;-49
2022/11/14 05:24:31;;;;;;;10.63;5.93;;;;;;;;;;5041069;28;20136;-48
2022/11/14 05:26:58;;;;;;;15.55;5.95;;;;;;;;;;5038868;28;20132;-48
2022/11/14 05:29:26;;;;;;;13.63;5.93;;;;;;;;;;5040362;28;20077;-49
2022/11/14 05:31:52;;;;;;;11.93;5.55;;;;;;;;;;5052051;28;20446;-51
2022/11/14 05:34:19;;;;;;;13.00;5.97;;;;;;;;;;5053110;28;20140;-51
2022/11/14 05:36:45;;;;;;;11.25;5.88;;;;;;;;;;5048802;28;20521;-53
2022/11/14 05:39:11;;;;;;;11.68;4.97;;;;;;;;;;5038035;28;20136;-48
2022/11/14 05:41:38;;;;;;;15.07;6.35;;;;;;;;;;5052726;28;20136;-52
2022/11/14 05:44:04;;;;;;;12.40;5.65;;;;;;;;;;5039697;28;20526;-49
2022/11/14 05:46:32;;;;;;;14.88;6.72;;;;;;;;;;5052430;28;20144;-49
2022/11/14 05:48:59;;;;;;;13.95;6.28;;;;;;;;;;5052059;28;20063;-52
2022/11/14 05:51:25;;;;;;;16.90;7.60;;;;;;;;;;5052983;28;20144;-50
2022/11/14 05:53:51;;;;;;;13.95;6.53;;;;;;;;;;5052169;28;20142;-50
2022/11/14 05:56:18;;;;;;;14.65;6.93;;;;;;;;;;5052235;28;20144;-49
2022/11/14 05:58:44;;;;;;;15.98;6.85;;;;;;;;;;5037822;28;20755;-52
2022/11/14 06:01:11;;;;;;;14.18;6.35;;;;;;;;;;5044499;28;20076;-51
2022/11/14 06:03:40;;;;;;;14.10;7.32;;;;;;;;;;5049915;28;20148;-49
2022/11/14 06:06:07;;;;;;;18.48;7.75;;;;;;;;;;5042090;28;20136;-49
2022/11/14 06:08:34;;;;;;;18.25;8.07;;;;;;;;;;5038507;28;20072;-49
2022/11/14 06:11:04;;;;;;;16.10;7.93;;;;;;;;;;5052914;28;20049;-49
2022/11/14 06:13:30;;;;;;;16.15;7.43;;;;;;;;;;5034126;28;20107;-49
2022/11/14 06:15:58;;;;;;;17.75;7.75;;;;;;;;;;5035446;28;20472;-49
2022/11/14 06:18:24;;;;;;;19.38;7.95;;;;;;;;;;5048898;28;20497;-49
2022/11/14 06:20:52;;;;;;;19.88;7.75;;;;;;;;;;5047149;28;20343;-48
2022/11/14 06:23:19;;;;;;;23.40;7.78;;;;;;;;;;5049035;28;20094;-52
2022/11/14 06:25:45;;;;;;;20.70;8.75;;;;;;;;;;5052152;28;20041;-51
2022/11/14 06:28:11;;;;;;;19.92;8.50;;;;;;;;;;5051561;28;20135;-49
2022/11/14 06:30:40;;;;;;;17.90;7.82;;;;;;;;;;5051799;28;20071;-49
2022/11/14 06:33:06;;;;;;;19.73;7.95;;;;;;;;;;5051612;28;20044;-50
2022/11/14 06:35:33;;;;;;;19.70;7.60;;;;;;;;;;5046149;28;20136;-49
2022/11/14 06:38:00;;;;;;;19.95;7.53;;;;;;;;;;5049254;28;20155;-51
2022/11/14 06:40:27;;;;;;;17.83;7.50;;;;;;;;;;5052031;28;20542;-50
2022/11/14 06:42:55;;;;;;;15.85;8.15;;;;;;;;;;5051421;28;20053;-48
2022/11/14 06:45:21;;;;;;;16.90;8.38;;;;;;;;;;5052423;28;20166;-48
2022/11/14 06:47:47;;;;;;;15.82;6.82;;;;;;;;;;5047993;28;20463;-49
2022/11/14 06:50:14;;;;;;;18.38;8.00;;;;;;;;;;5041059;28;20132;-48
2022/11/14 06:52:40;;;;;;;20.73;9.10;;;;;;;;;;5047084;28;20695;-50
2022/11/14 06:55:08;;;;;;;17.73;7.72;;;;;;;;;;5052486;28;20140;-48
2022/11/14 06:57:35;;;;;;;19.15;8.05;;;;;;;;;;5045610;28;20132;-48
2022/11/14 07:00:02;;;;;;;19.73;8.10;;;;;;;;;;5036288;28;20088;-49
2022/11/14 07:02:29;;;;;;;20.25;8.10;;;;;;;;;;5032019;28;20049;-48
2022/11/14 07:04:55;;;;;;;17.67;8.77;;;;;;;;;;5032195;28;20053;-48
2022/11/14 07:07:21;;;;;;;19.25;8.07;;;;;;;;;;5032285;28;20132;-48
2022/11/14 07:09:48;;;;;;;18.58;8.77;;;;;;;;;;5036128;28;20131;-48
2022/11/14 07:12:15;;;;;;;14.68;7.30;;;;;;;;;;5032386;28;20068;-47
2022/11/14 07:14:42;;;;;;;16.23;7.95;;;;;;;;;;5029215;28;20152;-47
2022/11/14 07:17:08;;;;;;;17.50;8.13;;;;;;;;;;5040912;28;20569;-47
2022/11/14 07:19:35;;;;;;;16.65;7.40;;;;;;;;;;5035612;28;20132;-46
2022/11/14 07:22:01;;;;;;;15.57;7.28;;;;;;;;;;5043461;28;20143;-48
2022/11/14 07:24:27;;;;;;;11.85;5.75;;;;;;;;;;5052879;28;20135;-50
2022/11/14 07:26:54;;;;;;;16.13;6.85;;;;;;;;;;5050367;28;20451;-50
2022/11/14 07:29:21;;;;;;;12.73;6.30;;;;;;;;;;5044275;28;20136;-54
2022/11/14 07:31:48;;;;;;;14.50;6.43;;;;;;;;;;5041732;28;20132;-49
2022/11/14 07:34:14;;;;;;;10.00;5.45;;;;;;;;;;5050846;28;20147;-49
2022/11/14 07:36:40;;;;;;;12.82;6.72;;;;;;;;;;5048845;28;20139;-49
2022/11/14 07:39:07;;;;;;;12.65;5.72;;;;;;;;;;5040419;28;20136;-49
2022/11/14 07:41:33;;;;;;;14.63;6.10;;;;;;;;;;5037380;28;20128;-49
2022/11/14 07:44:00;;;;;;;12.80;6.22;;;;;;;;;;5052239;28;20077;-49
2022/11/14 07:46:30;;;;;;;18.63;7.10;;;;;;;;;;5037583;28;20176;-51
2022/11/14 07:48:56;;;;;;;15.52;6.30;;;;;;;;;;5046439;28;20041;-51
2022/11/14 07:51:24;;;;;;;15.18;6.50;;;;;;;;;;5047657;28;20386;-53
2022/11/14 07:53:51;;;;;;;11.63;5.72;;;;;;;;;;5053292;28;20132;-50
2022/11/14 07:56:19;;;;;;;14.02;6.97;;;;;;;;;;5054656;28;20143;-50
2022/11/14 07:58:45;;;;;;;16.75;6.45;;;;;;;;;;5038614;28;20056;-52
2022/11/14 08:01:12;;;;;;;12.63;6.63;;;;;;;;;;5052388;28;20136;-50
2022/11/14 08:03:40;;;;;;;11.63;5.65;;;;;;;;;;5051828;28;20140;-49
2022/11/14 08:06:08;;;;;;;16.10;6.60;;;;;;;;;;5054746;28;20057;-49
2022/11/14 08:08:34;;;;;;;15.88;6.57;;;;;;;;;;5048846;28;20163;-49
2022/11/14 08:11:01;;;;;;;12.93;6.47;;;;;;;;;;5044196;28;20329;-50
2022/11/14 08:13:28;;;;;;;14.57;7.53;;;;;;;;;;5038366;28;20151;-49
2022/11/14 08:15:54;;;;;;;17.23;7.68;;;;;;;;;;5041229;28;20049;-52
2022/11/14 08:18:23;;;;;;;14.50;6.63;;;;;;;;;;5043046;28;20060;-49
2022/11/14 08:20:51;;;;;;;11.30;6.03;;;;;;;;;;5039514;28;20080;-50
2022/11/14 08:23:17;;;;;;;12.98;6.18;;;;;;;;;;5050405;28;20055;-48
2022/11/14 08:25:44;;;;;;;16.20;6.63;;;;;;;;;;5049439;28;20728;-48
2022/11/14 08:28:10;;;;;;;28.02;6.93;;;;;;;;;;5050461;28;20124;-48
2022/11/14 08:30:37;;;;;;;14.52;7.30;;;;;;;;;;5045886;28;20080;-49
2022/11/14 08:33:04;;;;;;;11.10;6.18;;;;;;;;;;5043835;28;20080;-50
2022/11/14 08:35:30;;;;;;;16.33;7.80;;;;;;;;;;5052882;28;20106;-50
2022/11/14 08:37:58;;;;;;;15.65;6.22;;;;;;;;;;5045954;28;20703;-48
2022/11/14 08:40:25;;;;;;;13.70;6.78;;;;;;;;;;5035351;28;20132;-50
2022/11/14 08:42:51;;;;;;;15.95;6.70;;;;;;;;;;5049284;28;20161;-49
2022/11/14 08:45:17;;;;;;;14.88;6.90;;;;;;;;;;5052810;28;20536;-49
2022/11/14 08:47:50;;;;;;;17.50;7.32;;;;;;;;;;5038995;28;20051;-48
2022/11/14 08:50:16;;;;;;;21.38;7.93;;;;;;;;;;5053973;28;20055;-47
2022/11/14 08:52:43;;;;;;;21.73;8.15;;;;;;;;;;5047434;28;20132;-49
2022/11/14 08:55:11;;;;;;;18.02;7.88;;;;;;;;;;5044892;28;20142;-47
2022/11/14 08:57:37;;;;;;;19.20;7.65;;;;;;;;;;5051703;28;20136;-48
2022/11/14 09:00:04;;;;;;;19.88;8.05;;;;;;;;;;5053227;28;20430;-48
2022/11/14 09:02:30;;;;;;;17.05;7.15;;;;;;;;;;5051573;28;20525;-46
2022/11/14 09:04:56;;;;;;;17.90;7.75;;;;;;;;;;5040231;28;20075;-47
2022/11/14 09:07:23;;;;;;;15.13;7.35;;;;;;;;;;5052722;28;20131;-48
2022/11/14 09:09:49;;;;;;;14.07;6.35;;;;;;;;;;5052094;28;20117;-47
2022/11/14 09:12:17;;;;;;;14.23;7.07;;;;;;;;;;5043834;28;20153;-46
2022/11/14 09:14:43;;;;;;;14.98;6.93;;;;;;;;;;5053215;28;20053;-48
2022/11/14 09:17:10;;;;;;;16.38;7.18;;;;;;;;;;5053024;28;20144;-46
2022/11/14 09:19:36;;;;;;;18.05;7.35;;;;;;;;;;5041729;28;20045;-48
2022/11/14 09:22:04;;;;;;;16.33;7.22;;;;;;;;;;5051536;28;20128;-51
2022/11/14 09:24:30;;;;;;;14.05;6.13;;;;;;;;;;5051597;28;20128;-49
2022/11/14 09:26:56;;;;;;;12.48;5.50;;;;;;;;;;5048027;28;20055;-49
2022/11/14 09:29:24;;;;;;;13.82;5.90;;;;;;;;;;5041565;28;20140;-48
2022/11/14 09:31:51;;;;;;;10.55;5.28;;;;;;;;;;5046546;28;20159;-48
2022/11/14 09:34:17;;;;;;;11.25;4.88;;;;;;;;;;5048490;28;20072;-49
2022/11/14 09:36:45;;;;;;;9.10;4.75;;;;;;;;;;5052747;28;20132;-49
2022/11/14 09:39:12;;;;;;;7.75;4.30;;;;;;;;;;5049372;28;20074;-48
2022/11/14 09:41:47;;;;;;;8.95;4.45;;;;;;;;;;5047165;28;20472;-48
2022/11/14 09:44:24;;;;;;;12.05;4.53;;;;;;;;;;5044415;28;20136;-48
2022/11/14 09:46:54;;;;;;;9.68;4.38;;;;;;;;;;5042771;28;20140;-48
2022/11/14 09:49:25;;;;;;;9.82;4.82;;;;;;;;;;5051411;28;20136;-48
2022/11/14 09:51:54;;;;;;;12.13;4.88;;;;;;;;;;5046342;28;20135;-46
2022/11/14 09:54:21;;;;;;;7.03;4.00;;;;;;;;;;5049375;28;20127;-47
2022/11/14 09:56:48;;;;;;;11.63;5.07;;;;;;;;;;5050412;28;20052;-47
2022/11/14 09:59:15;;;;;;;9.68;4.90;;;;;;;;;;5044951;28;20128;-46
2022/11/14 10:01:44;;;;;;;8.35;4.20;;;;;;;;;;5050198;28;20163;-47
2022/11/14 10:04:19;;;;;;;9.02;4.60;;;;;;;;;;5042600;28;20049;-49
2022/11/14 10:06:51;;;;;;;11.38;4.60;;;;;;;;;;5048849;28;20463;-48
2022/11/14 10:09:29;;;;;;;9.70;4.70;;;;;;;;;;5043243;28;20053;-49
2022/11/14 10:11:58;;;;;;;10.00;4.88;;;;;;;;;;5033855;28;20055;-50
2022/11/14 10:14:30;;;;;;;9.32;4.35;;;;;;;;;;5044661;28;20052;-50
2022/11/14 10:17:00;;;;;;;7.80;5.07;;;;;;;;;;5041577;28;20049;-49
2022/11/14 10:19:33;;;;;;;11.25;5.18;;;;;;;;;;5041090;28;20132;-48
2022/11/14 10:22:08;;;;;;;9.73;5.28;;;;;;;;;;5043429;28;20131;-48
2022/11/14 10:24:47;;;;;;;11.93;4.55;;;;;;;;;;5049919;28;20127;-49
2022/11/14 10:27:18;;;;;;;9.85;4.70;;;;;;;;;;5048244;28;20056;-48
2022/11/14 10:29:53;;;;;;;9.65;5.13;;;;;;;;;;5047802;28;20131;-49
2022/11/14 10:32:25;;;;;;;10.68;5.43;;;;;;;;;;5048158;28;20057;-46
2022/11/14 10:34:56;;;;;;;10.27;6.30;;;;;;;;;;5047331;28;20144;-47
2022/11/14 10:37:24;;;;;;;10.70;5.75;;;;;;;;;;5050193;28;20127;-47
2022/11/14 10:39:51;;;;;;;12.68;5.80;;;;;;;;;;5047785;28;20139;-47
2022/11/14 10:42:26;;;;;;;14.15;6.55;;;;;;;;;;5047900;28;20553;-48
2022/11/14 10:44:57;;;;;;;14.47;7.33;;;;;;;;;;5043211;28;20136;-48
2022/11/14 10:47:25;;;;;;;12.00;6.57;;;;;;;;;;5045015;28;20144;-48
2022/11/14 10:49:55;;;;;;;13.45;6.88;;;;;;;;;;5048360;28;20136;-47
2022/11/14 10:52:32;;;;;;;11.55;6.30;;;;;;;;;;5043104;28;20501;-49
2022/11/14 10:55:00;;;;;;;11.32;6.57;;;;;;;;;;5048430;28;20619;-50
2022/11/14 10:57:30;;;;;;;14.18;6.50;;;;;;;;;;5040210;28;20049;-51
2022/11/14 10:59:56;;;;;;;13.40;6.88;;;;;;;;;;5052280;28;20049;-48
2022/11/14 11:02:22;;;;;;;12.45;6.20;;;;;;;;;;5046685;28;20560;-49
2022/11/14 11:04:49;;;;;;;15.60;7.00;;;;;;;;;;5055414;28;20051;-48
2022/11/14 11:12:50;;;;;;;12.40;7.13;;;;;;;;;;5053979;28;20142;-49
2022/11/14 11:15:18;;;;;;;14.15;7.15;;;;;;;;;;5053155;28;20067;-49
2022/11/14 11:17:53;;;;;;;14.95;6.70;;;;;;;;;;5048425;28;20131;-48
2022/11/14 11:20:28;;;;;;;14.60;7.43;;;;;;;;;;5050693;28;20141;-46
2022/11/14 11:23:02;;;;;;;15.68;7.70;;;;;;;;;;5054914;28;20139;-49
2022/11/14 11:25:30;;;;;;;16.65;7.18;;;;;;;;;;5054440;28;20057;-50
2022/11/14 11:28:07;;;;;;;19.23;9.85;;;;;;;;;;5051612;28;20543;-49
2022/11/14 11:30:34;;;;;;;15.65;7.22;;;;;;;;;;5053411;28;20122;-49
2022/11/14 11:33:14;;;;;;;15.65;8.77;;;;;;;;;;5051179;28;20144;-47
2022/11/14 11:35:41;;;;;;;15.88;8.20;;;;;;;;;;5045486;28;20055;-48
2022/11/14 11:38:09;;;;;;;17.48;8.65;;;;;;;;;;5050724;28;20140;-48
2022/11/14 11:40:38;;;;;;;17.60;9.02;;;;;;;;;;5054026;28;20135;-47
2022/11/14 11:43:08;;;;;;;16.90;8.55;;;;;;;;;;5050535;28;20056;-49
2022/11/14 11:45:36;;;;;;;17.95;8.80;;;;;;;;;;5049903;28;20626;-48
2022/11/14 11:48:08;;;;;;;17.77;8.60;;;;;;;;;;5047204;28;20059;-48
2022/11/14 11:50:35;;;;;;;16.45;8.88;;;;;;;;;;5053726;28;20131;-47
2022/11/14 11:53:10;;;;;;;15.32;7.82;;;;;;;;;;5052368;28;20060;-49
2022/11/14 11:55:40;;;;;;;16.05;8.38;;;;;;;;;;5047565;28;20049;-48
2022/11/14 11:58:11;;;;;;;17.02;8.77;;;;;;;;;;5051963;28;20143;-48
2022/11/14 12:00:38;;;;;;;16.38;7.90;;;;;;;;;;5043280;28;20049;-48
2022/11/14 12:03:09;;;;;;;17.20;9.15;;;;;;;;;;5049322;28;20541;-47
2022/11/14 12:05:41;;;;;;;21.88;9.40;;;;;;;;;;5044106;28;20140;-49
2022/11/14 12:08:11;;;;;;;17.65;9.55;;;;;;;;;;5053044;28;20135;-48
2022/11/14 12:10:41;;;;;;;15.90;8.30;;;;;;;;;;5050156;28;20456;-49
2022/11/14 12:13:29;;;;;;;20.15;10.75;;;;;;;;;;5051482;28;20049;-48
2022/11/14 12:16:03;;;;;;;17.13;8.95;;;;;;;;;;5050520;28;20132;-48
2022/11/14 12:18:38;;;;;;;17.98;8.88;;;;;;;;;;5049096;28;20180;-45
2022/11/14 12:21:12;;;;;;;16.05;8.45;;;;;;;;;;5049038;28;20045;-47
2022/11/14 12:23:55;;;;;;;15.30;8.13;;;;;;;;;;5052553;28;20045;-47
2022/11/14 12:26:31;;;;;;;16.35;8.80;;;;;;;;;;5044791;28;20127;-46
2022/11/14 12:29:07;;;;;;;14.70;8.73;;;;;;;;;;5044267;28;20136;-47
2022/11/14 12:31:35;;;;;;;17.33;9.10;;;;;;;;;;5046382;28;20132;-48
2022/11/14 12:34:04;;;;;;;17.35;9.75;;;;;;;;;;5043213;28;20129;-47
2022/11/14 12:36:31;;;;;;;17.73;9.98;;;;;;;;;;5044244;28;20060;-47
2022/11/14 12:38:58;;;;;;;16.58;9.07;;;;;;;;;;5047924;28;20059;-47
2022/11/14 12:41:25;;;;;;;15.38;8.52;;;;;;;;;;5046509;28;20160;-48
2022/11/14 12:43:53;;;;;;;17.38;9.18;;;;;;;;;;5051156;28;20817;-47
2022/11/14 12:46:20;;;;;;;18.60;9.02;;;;;;;;;;5044399;28;20132;-46
2022/11/14 12:48:46;;;;;;;17.67;9.45;;;;;;;;;;5042064;28;20124;-48
2022/11/14 12:51:46;;;;;;;16.10;9.93;;;;;;;;;;5045203;28;20515;-50
2022/11/14 12:54:27;;;;;;;18.25;9.77;;;;;;;;;;4960172;28;20138;-50
2022/11/14 12:57:04;;;;;;;17.20;9.45;;;;;;;;;;4959330;28;20059;-51
2022/11/14 12:59:39;;;;;;;13.98;8.77;;;;;;;;;;5011454;28;20099;-49
2022/11/14 13:02:26;;;;;;;14.90;8.93;;;;;;;;;;5045023;28;20051;-46
2022/11/14 13:05:05;;;;;;;14.70;8.43;;;;;;;;;;5041020;28;20141;-47
2022/11/14 13:07:39;;;;;;;21.50;9.15;;;;;;;;;;5026185;28;20159;-46
2022/11/14 13:10:13;;;;;;;12.07;7.43;;;;;;;;;;5050606;28;20722;-47
2022/11/14 13:23:57;;;;;;;17.33;8.65;;;;;;;;;;5050543;28;20083;-46
2022/11/14 13:26:43;;;;;;;14.25;7.60;;;;;;;;;;5048254;28;20127;-49
2022/11/14 13:29:24;;;;;;;16.13;8.02;;;;;;;;;;5052593;28;20107;-47
2022/11/14 13:31:52;;;;;;;17.58;8.05;;;;;;;;;;5050775;28;20124;-51
2022/11/14 13:34:33;;;;;;;13.05;8.20;;;;;;;;;;5052637;28;20136;-49
2022/11/14 13:37:05;;;;;;;17.30;7.75;;;;;;;;;;5042733;28;20136;-49
2022/11/14 13:39:35;;;;;;;12.85;7.68;;;;;;;;;;5042355;28;20299;-46
2022/11/14 13:42:16;;;;;;;12.65;7.10;;;;;;;;;;5047275;28;20481;-48
2022/11/14 13:44:48;;;;;;;15.40;8.45;;;;;;;;;;5043021;28;20052;-50
2022/11/14 13:47:25;;;;;;;14.13;8.25;;;;;;;;;;5041957;28;20072;-49
2022/11/14 13:50:02;;;;;;;14.30;7.95;;;;;;;;;;5041807;28;20175;-48
2022/11/14 13:52:31;;;;;;;15.30;8.40;;;;;;;;;;5043072;28;20045;-48
2022/11/14 13:54:58;;;;;;;17.58;8.60;;;;;;;;;;5050323;28;20482;-49
2022/11/14 13:57:28;;;;;;;15.20;9.20;;;;;;;;;;5046068;28;20128;-49
2022/11/14 13:59:59;;;;;;;17.33;8.68;;;;;;;;;;5046432;28;20168;-47
2022/11/14 14:02:36;;;;;;;16.38;8.65;;;;;;;;;;5047652;28;20053;-46
2022/11/14 14:05:09;;;;;;;15.05;8.90;;;;;;;;;;5045982;28;20053;-51
2022/11/14 14:07:44;;;;;;;15.68;8.70;;;;;;;;;;5048770;28;20114;-46
2022/11/14 14:10:18;;;;;;;15.65;7.68;;;;;;;;;;5041302;28;20132;-47
2022/11/14 14:12:53;;;;;;;15.73;8.40;;;;;;;;;;5042245;28;20163;-48
2022/11/14 14:15:22;;;;;;;14.50;8.65;;;;;;;;;;5040359;28;20053;-47
2022/11/14 14:18:00;;;;;;;18.58;8.90;;;;;;;;;;5051397;28;20437;-48
2022/11/14 14:20:31;;;;;;;16.27;9.45;;;;;;;;;;5046788;28;20098;-50
2022/11/14 14:23:00;;;;;;;19.30;9.75;;;;;;;;;;5050939;28;20155;-50
2022/11/14 14:25:30;;;;;;;17.15;9.40;;;;;;;;;;5050990;28;20132;-50
2022/11/14 14:28:01;;;;;;;18.42;9.35;;;;;;;;;;5051376;28;20075;-49
2022/11/14 14:30:27;;;;;;;17.30;10.40;;;;;;;;;;5044415;28;20060;-48
2022/11/14 14:33:09;;;;;;;17.85;10.02;;;;;;;;;;5048408;28;20049;-48
2022/11/14 14:35:38;;;;;;;18.85;9.38;;;;;;;;;;5042293;28;20044;-46
2022/11/14 14:38:09;;;;;;;16.40;9.30;;;;;;;;;;5046944;28;20406;-48
2022/11/14 14:40:37;;;;;;;17.27;9.38;;;;;;;;;;5048484;28;20144;-46
2022/11/14 14:43:05;;;;;;;19.15;9.65;;;;;;;;;;5039122;28;20045;-47
2022/11/14 14:45:44;;;;;;;18.95;10.32;;;;;;;;;;5047845;28;20045;-46
2022/11/14 14:48:13;;;;;;;17.08;9.57;;;;;;;;;;5045338;28;20149;-47
2022/11/14 14:50:41;;;;;;;21.50;10.13;;;;;;;;;;5046785;28;20136;-47
2022/11/14 14:53:18;;;;;;;18.63;10.65;;;;;;;;;;5047958;28;20060;-47
2022/11/14 14:55:51;;;;;;;18.05;10.80;;;;;;;;;;5042964;28;20136;-47
2022/11/14 14:58:24;;;;;;;20.10;10.55;;;;;;;;;;5051182;28;20127;-47